createdAt,value
2023-04-24T00:02:27.712Z,8.11
2023-04-24T00:04:55.682Z,8.50
2023-04-24T00:07:23.496Z,7.54
2023-04-24T00:09:51.513Z,7.75
2023-04-24T00:12:19.281Z,7.24
2023-04-24T00:14:46.970Z,7.05
2023-04-24T00:17:14.761Z,6.46
2023-04-24T00:19:42.616Z,7.06
2023-04-24T00:22:11.936Z,6.98
2023-04-24T00:24:39.785Z,7.17
2023-04-24T00:27:07.560Z,7.39
2023-04-24T00:29:35.985Z,7.51
2023-04-24T00:32:03.801Z,8.03
2023-04-24T00:34:33.461Z,8.32
2023-04-24T00:37:01.224Z,8.15
2023-04-24T00:39:28.955Z,8.22
2023-04-24T00:41:57.788Z,8.33
2023-04-24T00:44:25.500Z,8.41
2023-04-24T00:46:55.672Z,6.23
2023-04-24T00:49:23.412Z,7.32
2023-04-24T00:51:52.220Z,7.77
2023-04-24T00:54:19.977Z,6.93
2023-04-24T00:56:48.011Z,7.55
2023-04-24T00:59:17.336Z,7.27
2023-04-24T01:01:45.878Z,7.66
2023-04-24T01:04:13.823Z,8.04
2023-04-24T01:06:41.689Z,8.30
2023-04-24T01:09:09.966Z,8.19
2023-04-24T01:11:38.038Z,8.37
2023-04-24T01:14:06.407Z,8.52
2023-04-24T01:16:34.458Z,8.36
2023-04-24T01:19:02.779Z,8.12
2023-04-24T01:21:31.132Z,8.48
2023-04-24T01:23:58.854Z,7.72
2023-04-24T01:26:26.646Z,7.45
2023-04-24T01:28:54.410Z,7.56
2023-04-24T01:31:22.175Z,7.27
2023-04-24T01:33:50.637Z,6.88
2023-04-24T01:36:18.508Z,6.67
2023-04-24T01:38:46.180Z,7.34
2023-04-24T01:41:13.927Z,7.87
2023-04-24T01:43:41.635Z,8.02
2023-04-24T01:46:09.446Z,7.31
2023-04-24T01:48:37.531Z,8.12
2023-04-24T01:51:05.396Z,7.82
2023-04-24T01:53:33.153Z,7.57
2023-04-24T01:56:00.914Z,7.74
2023-04-24T01:58:28.643Z,7.26
2023-04-24T02:00:58.132Z,7.36
2023-04-24T02:03:27.260Z,7.19
2023-04-24T02:05:56.191Z,7.15
2023-04-24T02:08:26.088Z,6.63
2023-04-24T02:10:53.827Z,6.26
2023-04-24T02:13:21.487Z,6.99
2023-04-24T02:15:49.209Z,7.06
2023-04-24T02:18:17.907Z,7.26
2023-04-24T02:20:46.131Z,7.83
2023-04-24T02:23:14.648Z,7.38
2023-04-24T02:25:42.447Z,7.02
2023-04-24T02:28:10.162Z,6.79
2023-04-24T02:30:37.837Z,7.65
2023-04-24T02:33:05.590Z,7.02
2023-04-24T02:35:33.323Z,6.43
2023-04-24T02:38:01.185Z,7.25
2023-04-24T02:40:28.848Z,7.75
2023-04-24T02:42:56.595Z,7.92
2023-04-24T02:45:25.655Z,6.98
2023-04-24T02:47:53.494Z,6.98
2023-04-24T02:50:21.303Z,7.00
2023-04-24T02:52:49.064Z,6.13
2023-04-24T02:55:16.838Z,5.84
2023-04-24T02:57:44.689Z,5.56
2023-04-24T03:00:13.012Z,6.46
2023-04-24T03:02:41.002Z,6.95
2023-04-24T03:05:09.961Z,6.50
2023-04-24T03:07:37.891Z,6.62
2023-04-24T03:10:07.096Z,7.45
2023-04-24T03:12:34.833Z,7.41
2023-04-24T03:15:02.512Z,6.61
2023-04-24T03:17:30.267Z,6.46
2023-04-24T03:19:58.009Z,6.16
2023-04-24T03:22:25.820Z,6.87
2023-04-24T03:24:55.799Z,7.37
2023-04-24T03:27:23.611Z,7.40
2023-04-24T03:30:08.712Z,6.20
2023-04-24T03:32:48.340Z,6.44
2023-04-24T03:35:22.965Z,6.35
2023-04-24T03:37:51.508Z,6.10
2023-04-24T03:40:42.303Z,6.78
2023-04-24T03:43:30.031Z,6.71
2023-04-24T03:46:00.556Z,6.76
2023-04-24T03:48:29.343Z,7.43
2023-04-24T03:50:57.403Z,6.51
2023-04-24T03:53:25.365Z,7.17
2023-04-24T03:55:54.017Z,6.00
2023-04-24T03:58:21.887Z,6.95
2023-04-24T04:00:50.876Z,6.91
2023-04-24T04:03:50.817Z,6.36
2023-04-24T04:06:23.008Z,7.53
2023-04-24T04:08:52.614Z,7.86
2023-04-24T04:11:20.896Z,7.66
2023-04-24T04:13:49.112Z,7.87
2023-04-24T04:16:19.846Z,7.40
2023-04-24T04:18:50.110Z,7.60
2023-04-24T04:21:18.236Z,8.10
2023-04-24T04:23:46.659Z,8.16
2023-04-24T04:26:26.530Z,8.37
2023-04-24T04:29:09.142Z,8.21
2023-04-24T04:31:41.253Z,8.54
2023-04-24T04:34:13.730Z,7.88
2023-04-24T04:36:42.820Z,7.71
2023-04-24T04:39:31.622Z,8.38
2023-04-24T04:42:05.596Z,8.38
2023-04-24T04:44:40.840Z,8.66
2023-04-24T04:49:39.928Z,8.36
2023-04-24T04:52:12.820Z,8.68
2023-04-24T04:54:40.883Z,8.61
2023-04-24T04:57:09.054Z,8.68
2023-04-24T04:59:38.224Z,8.70
2023-04-24T05:02:11.153Z,8.61
2023-04-24T05:04:39.446Z,8.34
2023-04-24T05:07:07.433Z,8.08
2023-04-24T05:09:39.228Z,8.50
2023-04-24T05:12:08.544Z,8.65
2023-04-24T05:14:43.143Z,8.85
2023-04-24T05:17:13.469Z,9.14
2023-04-24T05:19:41.970Z,9.22
2023-04-24T05:22:10.792Z,9.38
2023-04-24T05:24:47.223Z,9.70
2023-04-24T05:27:25.525Z,9.78
2023-04-24T05:29:53.250Z,10.01
2023-04-24T05:32:20.991Z,10.14
2023-04-24T05:34:48.831Z,10.18
2023-04-24T05:37:17.913Z,10.30
2023-04-24T05:39:45.808Z,10.24
2023-04-24T05:42:13.504Z,10.40
2023-04-24T05:44:41.270Z,10.49
2023-04-24T05:47:08.994Z,10.51
2023-04-24T05:49:36.771Z,10.67
2023-04-24T05:52:06.573Z,10.76
2023-04-24T05:54:34.724Z,10.86
2023-04-24T05:57:05.513Z,10.74
2023-04-24T05:59:45.745Z,10.56
2023-04-24T06:02:14.252Z,11.05
2023-04-24T06:04:42.814Z,11.09
2023-04-24T06:07:12.025Z,11.14
2023-04-24T06:09:41.100Z,11.29
2023-04-24T06:12:09.914Z,11.25
2023-04-24T06:14:52.280Z,11.24
2023-04-24T06:17:24.705Z,11.08
2023-04-24T06:19:52.636Z,11.21
2023-04-24T06:22:24.035Z,10.92
2023-04-24T06:24:51.796Z,11.43
2023-04-24T06:27:19.465Z,11.38
2023-04-24T06:29:47.231Z,11.63
2023-04-24T06:32:15.039Z,12.18
2023-04-24T06:34:43.414Z,12.29
2023-04-24T06:37:11.168Z,12.66
2023-04-24T06:39:38.915Z,12.83
2023-04-24T06:42:06.639Z,13.17
2023-04-24T06:44:41.633Z,13.26
2023-04-24T06:47:10.653Z,13.33
2023-04-24T06:49:38.691Z,13.48
2023-04-24T06:52:06.527Z,13.62
2023-04-24T06:54:34.286Z,13.64
2023-04-24T06:57:03.417Z,13.72
2023-04-24T06:59:31.496Z,13.85
2023-04-24T07:01:59.277Z,13.98
2023-04-24T07:04:27.575Z,13.92
2023-04-24T07:06:56.974Z,14.02
2023-04-24T07:09:26.481Z,13.94
2023-04-24T07:11:54.489Z,14.07
2023-04-24T07:14:22.199Z,14.10
2023-04-24T07:16:49.926Z,14.11
2023-04-24T07:19:17.657Z,14.13
2023-04-24T07:21:45.673Z,13.62
2023-04-24T07:24:13.999Z,13.80
2023-04-24T07:26:41.663Z,13.94
2023-04-24T07:29:09.371Z,14.22
2023-04-24T07:31:37.121Z,14.23
2023-04-24T07:34:04.847Z,14.40
2023-04-24T07:36:33.333Z,14.45
2023-04-24T07:39:01.010Z,14.27
2023-04-24T07:41:29.133Z,14.66
2023-04-24T07:43:56.875Z,14.56
2023-04-24T07:46:24.762Z,14.87
2023-04-24T07:49:05.413Z,14.60
2023-04-24T07:51:40.218Z,14.45
2023-04-24T07:54:07.966Z,14.59
2023-04-24T07:56:39.789Z,15.00
2023-04-24T07:59:07.728Z,15.22
2023-04-24T08:01:35.506Z,15.54
2023-04-24T08:04:03.465Z,15.18
2023-04-24T08:06:32.938Z,15.43
2023-04-24T08:09:01.036Z,14.88
2023-04-24T08:11:28.789Z,15.09
2023-04-24T08:13:56.547Z,15.56
2023-04-24T08:16:27.478Z,15.92
2023-04-24T08:18:55.267Z,16.07
2023-04-24T08:21:23.072Z,16.23
2023-04-24T08:23:51.085Z,16.12
2023-04-24T08:26:18.783Z,16.02
2023-04-24T08:28:46.505Z,16.14
2023-04-24T08:31:14.321Z,16.14
2023-04-24T08:33:42.083Z,16.23
2023-04-24T08:36:09.894Z,16.07
2023-04-24T08:38:37.601Z,16.31
2023-04-24T08:41:06.063Z,16.39
2023-04-24T08:43:34.237Z,16.31
2023-04-24T08:46:03.985Z,16.26
2023-04-24T08:48:33.362Z,16.08
2023-04-24T08:51:02.284Z,16.26
2023-04-24T08:53:30.105Z,15.70
2023-04-24T08:55:57.948Z,16.12
2023-04-24T08:58:27.088Z,16.60
2023-04-24T09:00:58.140Z,15.99
2023-04-24T09:03:26.234Z,16.28
2023-04-24T09:05:54.017Z,16.57
2023-04-24T09:08:21.907Z,17.12
2023-04-24T09:10:51.187Z,16.98
2023-04-24T09:13:20.589Z,17.51
2023-04-24T09:15:48.362Z,18.08
2023-04-24T09:18:16.132Z,18.12
2023-04-24T09:21:10.153Z,17.68
2023-04-24T09:23:37.934Z,17.63
2023-04-24T09:26:08.495Z,17.75
2023-04-24T09:28:37.815Z,17.69
2023-04-24T09:31:15.072Z,17.71
2023-04-24T09:34:08.703Z,17.56
2023-04-24T09:36:40.054Z,18.41
2023-04-24T09:39:10.733Z,18.32
2023-04-24T09:41:44.957Z,18.53
2023-04-24T09:44:22.918Z,18.37
2023-04-24T09:46:54.728Z,17.93
2023-04-24T09:49:29.459Z,18.23
2023-04-24T09:52:07.315Z,18.04
2023-04-24T09:54:35.158Z,19.31
2023-04-24T09:57:03.015Z,19.03
2023-04-24T09:59:30.915Z,19.14
2023-04-24T10:02:00.118Z,19.58
2023-04-24T10:04:29.136Z,20.04
2023-04-24T10:06:57.476Z,19.07
2023-04-24T10:09:26.326Z,19.34
2023-04-24T10:11:55.728Z,19.84
2023-04-24T10:14:24.367Z,20.22
2023-04-24T10:16:55.925Z,20.42
2023-04-24T10:19:23.945Z,20.02
2023-04-24T10:21:51.640Z,20.29
2023-04-24T10:24:21.597Z,20.69
2023-04-24T10:26:49.631Z,20.89
2023-04-24T10:29:19.090Z,21.26
2023-04-24T10:31:47.868Z,21.34
2023-04-24T10:34:16.880Z,20.93
2023-04-24T10:36:47.410Z,21.34
2023-04-24T10:39:16.079Z,21.43
2023-04-24T10:41:43.901Z,21.31
2023-04-24T10:44:13.752Z,21.36
2023-04-24T10:46:44.889Z,21.55
2023-04-24T10:49:12.808Z,21.42
2023-04-24T10:51:54.336Z,21.62
2023-04-24T10:54:41.523Z,21.99
2023-04-24T10:57:21.861Z,21.55
2023-04-24T10:59:51.778Z,21.31
2023-04-24T11:02:19.690Z,20.98
2023-04-24T11:04:47.687Z,20.94
2023-04-24T11:07:15.811Z,21.39
2023-04-24T11:09:44.247Z,21.80
2023-04-24T11:12:12.614Z,21.34
2023-04-24T11:14:59.443Z,21.59
2023-04-24T11:17:41.800Z,21.57
2023-04-24T11:20:26.700Z,21.80
2023-04-24T11:22:56.183Z,21.46
2023-04-24T11:25:24.205Z,21.80
2023-04-24T11:27:52.268Z,21.46
2023-04-24T11:30:21.036Z,21.06
2023-04-24T11:32:50.182Z,20.93
2023-04-24T11:35:25.903Z,21.76
2023-04-24T11:38:18.726Z,22.03
2023-04-24T11:40:42.097Z,22.73
2023-04-24T11:43:10.394Z,22.17
2023-04-24T11:45:38.219Z,22.60
2023-04-24T11:48:06.102Z,22.84
2023-04-24T11:50:33.895Z,22.82
2023-04-24T11:53:02.185Z,21.80
2023-04-24T11:55:30.232Z,21.95
2023-04-24T11:57:59.143Z,21.50
2023-04-24T12:00:31.149Z,21.89
2023-04-24T12:03:09.666Z,20.54
2023-04-24T12:05:38.079Z,21.71
2023-04-24T12:08:06.223Z,21.77
2023-04-24T12:10:34.140Z,22.47
2023-04-24T12:13:02.060Z,22.44
2023-04-24T12:15:29.796Z,22.72
2023-04-24T12:17:57.676Z,22.64
2023-04-24T12:20:27.560Z,22.58
2023-04-24T12:22:56.586Z,21.23
2023-04-24T12:25:25.970Z,21.95
2023-04-24T12:28:06.272Z,21.62
2023-04-24T12:30:45.343Z,21.63
2023-04-24T12:33:13.286Z,21.76
2023-04-24T12:35:41.967Z,22.02
2023-04-24T12:38:11.460Z,21.83
2023-04-24T12:40:39.222Z,21.40
2023-04-24T12:43:19.445Z,21.37
2023-04-24T12:45:48.722Z,21.60
2023-04-24T12:48:16.608Z,21.63
2023-04-24T12:50:46.445Z,21.70
2023-04-24T12:53:15.003Z,21.24
2023-04-24T12:55:42.826Z,21.07
2023-04-24T12:58:10.565Z,20.65
2023-04-24T13:00:38.511Z,20.75
2023-04-24T13:03:06.381Z,20.43
2023-04-24T13:05:34.434Z,19.83
2023-04-24T13:08:02.137Z,18.58
2023-04-24T13:10:29.911Z,18.78
2023-04-24T13:12:57.994Z,18.52
2023-04-24T13:15:25.785Z,18.51
2023-04-24T13:17:53.528Z,18.50
2023-04-24T13:20:21.446Z,17.79
2023-04-24T13:22:49.172Z,17.13
2023-04-24T13:25:18.215Z,17.36
2023-04-24T13:27:46.358Z,17.51
2023-04-24T13:30:14.349Z,17.67
2023-04-24T13:32:42.120Z,16.31
2023-04-24T13:35:09.912Z,16.56
2023-04-24T13:37:37.630Z,16.03
2023-04-24T13:40:07.168Z,16.22
2023-04-24T13:42:35.340Z,15.57
2023-04-24T13:45:13.899Z,14.60
2023-04-24T13:47:52.150Z,14.52
2023-04-24T13:50:21.330Z,14.98
2023-04-24T13:52:49.019Z,15.44
2023-04-24T13:55:16.751Z,15.17
2023-04-24T13:57:44.464Z,15.36
2023-04-24T14:00:12.638Z,14.99
2023-04-24T14:02:40.600Z,14.67
2023-04-24T14:05:08.861Z,14.50
2023-04-24T14:07:36.581Z,14.96
2023-04-24T14:10:04.680Z,14.63
2023-04-24T14:12:32.421Z,14.61
2023-04-24T14:15:00.170Z,14.91
2023-04-24T14:17:27.865Z,14.91
2023-04-24T14:19:57.404Z,15.16
2023-04-24T14:22:25.093Z,14.73
2023-04-24T14:24:52.844Z,14.81
2023-04-24T14:27:20.597Z,14.57
2023-04-24T14:29:48.358Z,14.20
2023-04-24T14:32:16.217Z,14.31
2023-04-24T14:34:43.978Z,14.51
2023-04-24T14:37:11.622Z,14.33
2023-04-24T14:39:39.370Z,14.23
2023-04-24T14:42:07.110Z,14.51
2023-04-24T14:44:34.967Z,14.65
2023-04-24T14:47:02.727Z,14.52
2023-04-24T14:49:30.819Z,14.40
2023-04-24T14:51:58.455Z,14.07
2023-04-24T14:54:26.362Z,14.49
2023-04-24T14:56:55.137Z,14.53
2023-04-24T14:59:22.982Z,14.74
2023-04-24T15:01:56.739Z,14.60
2023-04-24T15:04:30.162Z,14.25
2023-04-24T15:06:58.107Z,14.26
2023-04-24T15:09:26.608Z,14.34
2023-04-24T15:11:54.323Z,14.50
2023-04-24T15:14:22.091Z,14.56
2023-04-24T15:16:50.018Z,14.11
2023-04-24T15:19:17.786Z,14.23
2023-04-24T15:21:45.927Z,14.27
2023-04-24T15:24:13.634Z,14.59
2023-04-24T15:26:41.339Z,14.56
2023-04-24T15:29:09.208Z,14.90
2023-04-24T15:31:40.666Z,14.86
2023-04-24T15:34:08.560Z,14.35
2023-04-24T15:36:36.255Z,14.24
2023-04-24T15:39:05.657Z,14.45
2023-04-24T15:41:34.834Z,14.74
2023-04-24T15:44:02.506Z,14.90
2023-04-24T15:46:30.455Z,14.68
2023-04-24T15:48:58.362Z,14.28
2023-04-24T15:51:26.472Z,14.27
2023-04-24T15:53:54.228Z,14.67
2023-04-24T15:56:22.417Z,15.33
2023-04-24T15:58:50.364Z,15.21
2023-04-24T16:01:18.346Z,15.72
2023-04-24T16:03:46.766Z,15.59
2023-04-24T16:06:15.032Z,15.46
2023-04-24T16:08:42.813Z,15.99
2023-04-24T16:11:10.803Z,15.31
2023-04-24T16:13:38.542Z,15.95
2023-04-24T16:16:06.660Z,16.37
2023-04-24T16:18:34.524Z,15.07
2023-04-24T16:21:02.356Z,15.00
2023-04-24T16:23:30.041Z,14.96
2023-04-24T16:25:58.005Z,14.37
2023-04-24T16:28:27.833Z,14.19
2023-04-24T16:30:55.921Z,14.78
2023-04-24T16:33:26.225Z,14.84
2023-04-24T16:35:53.936Z,14.69
2023-04-24T16:38:21.638Z,14.38
2023-04-24T16:40:49.370Z,14.04
2023-04-24T16:43:17.101Z,14.78
2023-04-24T16:45:44.829Z,13.99
2023-04-24T16:48:12.526Z,13.69
2023-04-24T16:50:40.707Z,13.47
2023-04-24T16:53:08.430Z,13.72
2023-04-24T16:55:36.536Z,14.23
2023-04-24T16:58:04.237Z,14.05
2023-04-24T17:00:32.167Z,13.91
2023-04-24T17:03:00.069Z,14.14
2023-04-24T17:05:27.973Z,14.59
2023-04-24T17:07:55.841Z,14.49
2023-04-24T17:10:23.984Z,14.05
2023-04-24T17:12:51.964Z,14.42
2023-04-24T17:15:19.902Z,14.62
2023-04-24T17:17:47.631Z,14.42
2023-04-24T17:20:22.689Z,13.40
2023-04-24T17:22:52.064Z,13.12
2023-04-24T17:25:20.244Z,14.03
2023-04-24T17:27:48.197Z,14.27
2023-04-24T17:30:17.977Z,14.26
2023-04-24T17:32:46.109Z,14.28
2023-04-24T17:35:14.181Z,14.02
2023-04-24T17:37:42.161Z,13.96
2023-04-24T17:40:10.373Z,14.26
2023-04-24T17:42:41.580Z,14.39
2023-04-24T17:45:10.062Z,14.62
2023-04-24T17:47:38.204Z,14.72
2023-04-24T17:50:06.391Z,14.35
2023-04-24T17:52:34.994Z,14.21
2023-04-24T17:55:02.839Z,14.38
2023-04-24T17:57:30.832Z,14.35
2023-04-24T17:59:58.832Z,14.46
2023-04-24T18:02:26.948Z,14.58
2023-04-24T18:04:55.410Z,14.55
2023-04-24T18:07:23.461Z,14.53
2023-04-24T18:09:51.240Z,14.52
2023-04-24T18:12:18.899Z,14.45
2023-04-24T18:14:46.664Z,14.36
2023-04-24T18:17:14.357Z,13.79
2023-04-24T18:19:42.151Z,13.50
2023-04-24T18:22:09.841Z,12.73
2023-04-24T18:24:37.554Z,13.20
2023-04-24T18:27:05.287Z,13.15
2023-04-24T18:29:33.059Z,12.72
2023-04-24T18:32:00.784Z,12.94
2023-04-24T18:34:28.576Z,12.92
2023-04-24T18:36:56.429Z,12.49
2023-04-24T18:39:24.177Z,12.48
2023-04-24T18:41:51.869Z,12.16
2023-04-24T18:44:20.176Z,11.72
2023-04-24T18:46:47.886Z,11.79
2023-04-24T18:49:15.739Z,11.50
2023-04-24T18:51:53.107Z,11.22
2023-04-24T18:54:26.836Z,11.65
2023-04-24T18:56:54.689Z,11.97
2023-04-24T18:59:22.568Z,11.75
2023-04-24T19:01:50.320Z,12.38
2023-04-24T19:04:20.710Z,11.66
2023-04-24T19:06:49.021Z,12.03
2023-04-24T19:09:16.843Z,11.28
2023-04-24T19:11:44.935Z,10.96
2023-04-24T19:14:13.585Z,10.85
2023-04-24T19:16:41.718Z,11.18
2023-04-24T19:19:09.521Z,11.59
2023-04-24T19:21:37.268Z,11.35
2023-04-24T19:24:05.209Z,12.02
2023-04-24T19:26:33.026Z,11.93
2023-04-24T19:29:00.767Z,11.45
2023-04-24T19:31:28.555Z,11.83
2023-04-24T19:33:56.301Z,12.00
2023-04-24T19:36:24.088Z,11.85
2023-04-24T19:38:51.975Z,12.52
2023-04-24T19:41:19.881Z,12.58
2023-04-24T19:43:49.712Z,12.59
2023-04-24T19:46:17.638Z,12.22
2023-04-24T19:48:45.357Z,12.25
2023-04-24T19:51:13.337Z,12.70
2023-04-24T19:53:41.398Z,12.57
2023-04-24T19:56:09.182Z,12.69
2023-04-24T19:58:36.889Z,12.86
2023-04-24T20:01:06.029Z,12.59
2023-04-24T20:03:34.720Z,12.66
2023-04-24T20:06:02.912Z,12.74
2023-04-24T20:08:30.715Z,12.52
2023-04-24T20:10:58.595Z,12.86
2023-04-24T20:13:31.845Z,12.98
2023-04-24T20:16:00.045Z,12.92
2023-04-24T20:18:27.860Z,12.93
2023-04-24T20:20:58.159Z,12.99
2023-04-24T20:23:26.453Z,13.00
2023-04-24T20:25:58.241Z,13.05
2023-04-24T20:28:26.992Z,12.82
2023-04-24T20:30:54.819Z,13.01
2023-04-24T20:33:23.633Z,12.48
2023-04-24T20:35:52.403Z,12.98
2023-04-24T20:38:22.298Z,12.95
2023-04-24T20:40:57.735Z,12.96
2023-04-24T20:43:28.710Z,13.00
2023-04-24T20:45:58.219Z,12.95
2023-04-24T20:48:26.726Z,12.32
2023-04-24T20:50:54.743Z,12.24
2023-04-24T20:53:22.478Z,12.42
2023-04-24T20:55:50.433Z,12.66
2023-04-24T20:58:22.121Z,11.99
2023-04-24T21:00:50.144Z,11.42
2023-04-24T21:03:18.009Z,10.94
2023-04-24T21:05:45.897Z,10.73
2023-04-24T21:08:13.650Z,10.58
2023-04-24T21:10:41.441Z,10.65
2023-04-24T21:13:09.192Z,10.37
2023-04-24T21:15:37.055Z,10.12
2023-04-24T21:18:04.883Z,10.17
2023-04-24T21:20:32.692Z,9.98
2023-04-24T21:23:00.428Z,10.19
2023-04-24T21:25:28.251Z,9.90
2023-04-24T21:27:56.845Z,9.90
2023-04-24T21:30:24.571Z,9.59
2023-04-24T21:32:52.870Z,9.74
2023-04-24T21:35:20.694Z,9.48
2023-04-24T21:37:48.343Z,9.24
2023-04-24T21:40:16.113Z,9.45
2023-04-24T21:42:43.806Z,9.48
2023-04-24T21:45:11.888Z,9.56
2023-04-24T21:47:39.590Z,9.56
2023-04-24T21:50:07.996Z,9.47
2023-04-24T21:52:35.688Z,9.83
2023-04-24T21:55:03.619Z,9.68
2023-04-24T21:57:31.388Z,9.88
2023-04-24T21:59:59.165Z,10.00
2023-04-24T22:02:27.003Z,10.57
2023-04-24T22:04:57.556Z,11.06
2023-04-24T22:07:25.397Z,10.89
2023-04-24T22:09:53.195Z,10.14
2023-04-24T22:12:20.919Z,10.37
2023-04-24T22:14:48.767Z,10.01
2023-04-24T22:17:17.301Z,10.29
2023-04-24T22:19:45.086Z,10.59
2023-04-24T22:22:12.761Z,11.33
2023-04-24T22:24:40.506Z,11.66
2023-04-24T22:27:08.549Z,11.53
2023-04-24T22:29:36.235Z,11.17
2023-04-24T22:32:04.026Z,11.62
2023-04-24T22:34:31.722Z,11.10
2023-04-24T22:36:59.413Z,11.21
2023-04-24T22:39:27.079Z,11.02
2023-04-24T22:41:54.881Z,11.43
2023-04-24T22:44:22.584Z,11.02
2023-04-24T22:46:51.682Z,11.05
2023-04-24T22:49:20.463Z,10.95
2023-04-24T22:51:48.725Z,11.12
2023-04-24T22:54:16.372Z,10.68
2023-04-24T22:56:44.078Z,10.73
2023-04-24T22:59:11.760Z,11.26
2023-04-24T23:01:39.499Z,11.61
2023-04-24T23:04:07.304Z,11.70
2023-04-24T23:06:35.131Z,11.46
2023-04-24T23:09:02.812Z,11.59
2023-04-24T23:11:30.568Z,11.71
2023-04-24T23:13:58.273Z,11.28
2023-04-24T23:16:26.038Z,11.06
2023-04-24T23:18:53.776Z,11.11
2023-04-24T23:21:21.539Z,11.31
2023-04-24T23:23:51.045Z,11.31
2023-04-24T23:26:18.858Z,11.17
2023-04-24T23:28:46.618Z,11.51
2023-04-24T23:31:14.398Z,11.28
2023-04-24T23:33:42.099Z,11.47
2023-04-24T23:36:09.902Z,11.56
2023-04-24T23:38:49.089Z,11.70
2023-04-24T23:41:21.135Z,11.62
2023-04-24T23:43:48.975Z,11.87
2023-04-24T23:46:16.889Z,11.94
2023-04-24T23:48:44.604Z,11.96
2023-04-24T23:51:12.321Z,11.90
2023-04-24T23:53:40.040Z,11.90
2023-04-24T23:56:08.085Z,11.88
2023-04-24T23:58:36.847Z,11.87
